createdAt,value
2022-09-30T00:01:44.844Z,5.95
2022-09-30T00:04:17.511Z,5.70
2022-09-30T00:06:45.172Z,6.22
2022-09-30T00:09:13.194Z,5.97
2022-09-30T00:11:41.395Z,6.40
2022-09-30T00:14:15.203Z,7.38
2022-09-30T00:16:42.905Z,6.50
2022-09-30T00:19:10.020Z,6.30
2022-09-30T00:21:37.087Z,5.65
2022-09-30T00:24:05.063Z,4.93
2022-09-30T00:26:33.105Z,4.38
2022-09-30T00:29:01.146Z,4.55
2022-09-30T00:31:31.663Z,5.68
2022-09-30T00:34:08.140Z,5.43
2022-09-30T00:36:43.743Z,4.50
2022-09-30T00:39:15.161Z,4.38
2022-09-30T00:41:43.572Z,4.78
2022-09-30T00:44:48.126Z,5.38
2022-09-30T00:47:47.549Z,4.43
2022-09-30T00:50:23.220Z,5.07
2022-09-30T00:53:29.828Z,5.43
2022-09-30T00:55:59.447Z,5.13
2022-09-30T00:58:35.180Z,4.72
2022-09-30T01:01:02.931Z,4.43
2022-09-30T01:03:37.203Z,4.13
2022-09-30T01:06:05.146Z,4.03
2022-09-30T01:08:35.950Z,3.80
2022-09-30T01:11:07.847Z,4.15
2022-09-30T01:13:37.280Z,3.97
2022-09-30T01:16:37.915Z,4.47
2022-09-30T01:19:39.451Z,4.20
2022-09-30T01:22:17.172Z,4.20
2022-09-30T01:24:58.846Z,4.43
2022-09-30T01:27:44.016Z,4.00
2022-09-30T01:30:16.827Z,4.40
2022-09-30T01:33:06.168Z,4.60
2022-09-30T01:35:54.803Z,6.30
2022-09-30T01:38:30.928Z,6.40
2022-09-30T01:41:03.596Z,6.47
2022-09-30T01:43:45.538Z,7.40
2022-09-30T01:46:27.220Z,6.93
2022-09-30T01:48:56.843Z,6.95
2022-09-30T01:51:26.591Z,7.57
2022-09-30T01:54:03.621Z,7.63
2022-09-30T01:56:30.504Z,7.10
2022-09-30T01:59:10.545Z,7.13
2022-09-30T02:01:44.267Z,6.47
2022-09-30T02:04:20.237Z,6.45
2022-09-30T02:06:53.847Z,5.93
2022-09-30T02:09:53.639Z,5.43
2022-09-30T02:12:23.966Z,5.15
2022-09-30T02:15:15.529Z,5.63
2022-09-30T02:18:05.680Z,4.97
2022-09-30T02:20:37.473Z,5.60
2022-09-30T02:23:10.822Z,4.65
2022-09-30T02:25:42.923Z,3.75
2022-09-30T02:28:15.403Z,3.00
2022-09-30T02:30:47.833Z,2.55
2022-09-30T02:33:21.199Z,2.63
2022-09-30T02:36:03.510Z,2.92
2022-09-30T02:38:37.201Z,2.88
2022-09-30T02:41:14.009Z,3.63
2022-09-30T02:43:42.298Z,3.17
2022-09-30T02:46:18.199Z,3.45
2022-09-30T02:49:06.828Z,4.50
2022-09-30T02:51:59.851Z,5.47
2022-09-30T02:54:36.289Z,5.45
2022-09-30T02:57:24.393Z,4.93
2022-09-30T02:59:53.183Z,4.88
2022-09-30T03:02:21.074Z,5.30
2022-09-30T03:04:50.825Z,5.72
2022-09-30T03:07:18.415Z,5.35
2022-09-30T03:09:45.502Z,5.25
2022-09-30T03:12:57.945Z,4.80
2022-09-30T03:15:49.391Z,4.97
2022-09-30T03:18:31.457Z,4.40
2022-09-30T03:21:09.735Z,4.05
2022-09-30T03:24:05.872Z,4.03
2022-09-30T03:26:57.022Z,4.00
2022-09-30T03:29:42.932Z,4.30
2022-09-30T03:32:33.523Z,4.50
2022-09-30T03:35:21.158Z,5.00
2022-09-30T03:38:15.858Z,4.88
2022-09-30T03:41:17.936Z,5.10
2022-09-30T03:43:55.765Z,5.35
2022-09-30T03:46:26.408Z,5.65
2022-09-30T03:48:58.321Z,5.13
2022-09-30T03:51:25.454Z,5.05
2022-09-30T03:53:54.334Z,5.20
2022-09-30T03:56:30.133Z,6.10
2022-09-30T03:58:58.190Z,5.05
2022-09-30T04:01:25.434Z,5.55
2022-09-30T04:03:53.567Z,5.97
2022-09-30T04:06:22.721Z,6.07
2022-09-30T04:08:50.571Z,5.20
2022-09-30T04:11:17.996Z,5.65
2022-09-30T04:13:44.888Z,5.03
2022-09-30T04:16:11.841Z,5.40
2022-09-30T04:18:39.584Z,5.60
2022-09-30T04:21:11.852Z,5.45
2022-09-30T04:23:40.615Z,4.85
2022-09-30T04:26:11.118Z,5.13
2022-09-30T04:28:38.037Z,5.20
2022-09-30T04:31:06.645Z,4.10
2022-09-30T04:33:33.866Z,3.65
2022-09-30T04:36:01.574Z,4.25
2022-09-30T04:38:29.319Z,3.92
2022-09-30T04:40:56.423Z,3.22
2022-09-30T04:43:24.571Z,3.00
2022-09-30T04:45:52.893Z,3.38
2022-09-30T04:48:21.377Z,3.83
2022-09-30T04:50:49.229Z,2.88
2022-09-30T04:53:17.111Z,3.03
2022-09-30T04:55:45.333Z,3.28
2022-09-30T04:58:12.912Z,3.00
2022-09-30T05:00:40.167Z,3.17
2022-09-30T05:03:07.301Z,3.78
2022-09-30T05:05:34.752Z,1.70
2022-09-30T05:08:05.426Z,1.60
2022-09-30T05:10:32.779Z,1.40
2022-09-30T05:12:59.629Z,1.45
2022-09-30T05:15:27.268Z,1.52
2022-09-30T05:17:54.267Z,2.30
2022-09-30T05:20:21.697Z,1.25
2022-09-30T05:22:53.825Z,1.63
2022-09-30T05:25:20.746Z,1.67
2022-09-30T05:27:51.455Z,1.58
2022-09-30T05:30:18.478Z,1.67
2022-09-30T05:32:46.123Z,1.27
2022-09-30T05:35:13.105Z,1.80
2022-09-30T05:37:40.185Z,1.90
2022-09-30T05:40:08.405Z,1.60
2022-09-30T05:42:37.046Z,1.65
2022-09-30T05:45:07.312Z,1.60
2022-09-30T05:47:34.701Z,1.58
2022-09-30T05:50:01.628Z,1.42
2022-09-30T05:52:29.718Z,1.35
2022-09-30T05:54:59.172Z,1.73
2022-09-30T05:57:26.092Z,1.52
2022-09-30T05:59:52.940Z,1.60
2022-09-30T06:02:19.975Z,1.70
2022-09-30T06:04:46.944Z,1.55
2022-09-30T06:07:14.045Z,1.33
2022-09-30T06:09:41.075Z,1.55
2022-09-30T06:12:08.377Z,1.20
2022-09-30T06:14:35.325Z,1.67
2022-09-30T06:17:02.253Z,1.33
2022-09-30T06:19:30.474Z,2.33
2022-09-30T06:21:58.440Z,2.22
2022-09-30T06:24:25.611Z,1.85
2022-09-30T06:26:52.490Z,1.55
2022-09-30T06:29:19.936Z,1.70
2022-09-30T06:31:46.970Z,1.55
2022-09-30T06:34:13.959Z,1.95
2022-09-30T06:36:41.029Z,1.98
2022-09-30T06:39:11.535Z,1.67
2022-09-30T06:41:43.641Z,1.67
2022-09-30T06:44:13.112Z,1.75
2022-09-30T06:46:51.655Z,2.17
2022-09-30T06:49:19.803Z,2.03
2022-09-30T06:51:46.823Z,2.72
2022-09-30T06:54:13.719Z,2.08
2022-09-30T06:56:40.647Z,2.60
2022-09-30T06:59:07.541Z,2.90
2022-09-30T07:01:34.525Z,2.55
2022-09-30T07:04:08.037Z,2.78
2022-09-30T07:06:35.243Z,2.25
2022-09-30T07:09:02.280Z,2.70
2022-09-30T07:11:29.158Z,2.08
2022-09-30T07:13:56.035Z,2.25
2022-09-30T07:16:25.867Z,2.60
2022-09-30T07:18:54.120Z,2.58
2022-09-30T07:21:21.002Z,3.20
2022-09-30T07:23:48.254Z,2.58
2022-09-30T07:26:20.666Z,2.42
2022-09-30T07:28:47.829Z,2.50
2022-09-30T07:31:32.352Z,2.90
2022-09-30T07:33:59.946Z,3.40
2022-09-30T07:36:33.066Z,2.75
2022-09-30T07:39:06.152Z,2.00
2022-09-30T07:41:36.686Z,2.03
2022-09-30T07:44:05.673Z,2.17
2022-09-30T07:46:34.906Z,2.70
2022-09-30T07:49:04.209Z,2.47
2022-09-30T07:51:35.517Z,2.42
2022-09-30T07:54:06.220Z,2.60
2022-09-30T07:56:57.872Z,2.70
2022-09-30T07:59:22.342Z,3.22
2022-09-30T08:01:50.957Z,3.30
2022-09-30T08:04:19.968Z,2.63
2022-09-30T08:06:50.018Z,2.78
2022-09-30T08:09:19.344Z,2.78
2022-09-30T08:11:46.403Z,2.80
2022-09-30T08:14:18.805Z,2.97
2022-09-30T08:16:45.805Z,3.00
2022-09-30T08:19:18.210Z,3.25
2022-09-30T08:21:45.776Z,3.03
2022-09-30T08:24:13.766Z,2.50
2022-09-30T08:26:41.165Z,2.22
2022-09-30T08:29:08.462Z,2.25
2022-09-30T08:31:35.565Z,2.17
2022-09-30T08:34:03.314Z,1.98
2022-09-30T08:36:30.885Z,1.95
2022-09-30T08:38:58.294Z,2.60
2022-09-30T08:41:27.869Z,2.70
2022-09-30T08:44:01.137Z,2.63
2022-09-30T08:46:58.431Z,2.75
2022-09-30T08:49:34.809Z,2.70
2022-09-30T08:52:03.474Z,2.90
2022-09-30T08:54:39.864Z,3.17
2022-09-30T08:57:07.240Z,2.83
2022-09-30T08:59:48.223Z,2.90
2022-09-30T09:02:33.237Z,2.63
2022-09-30T09:05:06.947Z,2.00
2022-09-30T09:07:46.332Z,2.35
2022-09-30T09:10:24.281Z,2.47
2022-09-30T09:12:54.219Z,2.70
2022-09-30T09:15:43.582Z,3.10
2022-09-30T09:18:38.515Z,3.13
2022-09-30T09:21:16.686Z,2.25
2022-09-30T09:23:44.621Z,2.00
2022-09-30T09:26:14.460Z,2.25
2022-09-30T09:29:25.989Z,2.60
2022-09-30T09:31:55.186Z,2.67
2022-09-30T09:34:25.664Z,2.10
2022-09-30T09:37:13.422Z,2.20
2022-09-30T09:40:12.196Z,2.28
2022-09-30T10:17:35.273Z,1.88
2022-09-30T10:20:07.827Z,2.05
2022-09-30T10:22:36.820Z,2.47
2022-09-30T10:25:24.928Z,2.25
2022-09-30T10:27:53.821Z,2.33
2022-09-30T10:30:53.959Z,1.98
2022-09-30T10:33:24.950Z,1.70
2022-09-30T10:36:07.689Z,1.73
2022-09-30T10:38:36.157Z,1.95
2022-09-30T10:41:05.399Z,2.53
2022-09-30T10:43:42.300Z,2.22
2022-09-30T10:46:27.271Z,2.00
2022-09-30T10:48:56.857Z,1.80
2022-09-30T10:51:35.039Z,2.22
2022-09-30T10:54:03.152Z,1.88
2022-09-30T10:56:39.062Z,2.10
2022-09-30T10:59:31.394Z,1.50
2022-09-30T11:02:07.258Z,1.90
2022-09-30T11:04:43.269Z,1.88
2022-09-30T11:07:49.334Z,1.92
2022-09-30T11:10:34.304Z,2.10
2022-09-30T11:13:23.776Z,1.90
2022-09-30T11:16:03.501Z,1.60
2022-09-30T11:18:42.518Z,2.10
2022-09-30T11:22:01.722Z,1.85
2022-09-30T11:24:57.390Z,1.38
2022-09-30T11:27:46.409Z,1.20
2022-09-30T11:30:16.271Z,2.20
2022-09-30T11:33:01.061Z,2.30
2022-09-30T11:35:43.169Z,2.00
2022-09-30T11:38:31.794Z,1.90
2022-09-30T11:41:09.612Z,1.83
2022-09-30T11:43:45.672Z,1.73
2022-09-30T11:48:53.077Z,2.40
2022-09-30T11:51:42.614Z,2.33
2022-09-30T11:54:33.245Z,2.25
2022-09-30T11:57:29.345Z,2.53
2022-09-30T12:00:02.061Z,2.73
2022-09-30T12:02:46.783Z,2.10
2022-09-30T12:05:38.434Z,2.40
2022-09-30T12:08:15.737Z,3.03
2022-09-30T12:10:48.514Z,2.28
2022-09-30T12:13:23.235Z,2.55
2022-09-30T12:15:52.884Z,2.47
2022-09-30T12:18:42.007Z,2.38
2022-09-30T12:21:33.162Z,2.30
2022-09-30T12:24:11.544Z,2.25
2022-09-30T12:26:40.891Z,2.22
2022-09-30T12:29:55.848Z,2.35
2022-09-30T12:32:59.775Z,2.20
2022-09-30T12:35:29.763Z,2.30
2022-09-30T12:38:17.813Z,2.88
2022-09-30T12:41:05.984Z,1.90
2022-09-30T12:43:51.751Z,2.40
2022-09-30T12:46:39.886Z,2.50
2022-09-30T12:49:14.955Z,2.60
2022-09-30T12:51:44.183Z,1.83
2022-09-30T12:54:39.613Z,2.28
2022-09-30T12:57:09.838Z,2.00
2022-09-30T12:59:47.310Z,2.22
2022-09-30T13:02:31.820Z,2.22
2022-09-30T13:05:26.481Z,1.80
2022-09-30T13:08:05.569Z,1.80
2022-09-30T13:10:44.204Z,1.80
2022-09-30T13:13:11.284Z,1.50
2022-09-30T13:15:41.372Z,1.50
2022-09-30T13:18:20.362Z,1.73
2022-09-30T13:20:56.801Z,1.80
2022-09-30T13:23:57.198Z,1.75
2022-09-30T13:26:27.517Z,2.15
2022-09-30T13:29:17.672Z,1.52
2022-09-30T13:31:50.288Z,1.75
2022-09-30T13:34:31.293Z,1.65
2022-09-30T13:36:59.528Z,1.70
2022-09-30T13:39:35.524Z,1.60
2022-09-30T13:42:17.820Z,1.75
2022-09-30T13:45:11.076Z,1.85
2022-09-30T13:47:44.393Z,1.95
2022-09-30T13:50:32.644Z,1.83
2022-09-30T13:53:06.003Z,2.22
2022-09-30T13:55:41.667Z,2.60
2022-09-30T13:58:20.227Z,2.33
2022-09-30T14:00:54.614Z,2.20
2022-09-30T14:03:59.788Z,2.22
2022-09-30T14:07:00.440Z,2.15
2022-09-30T14:09:30.081Z,1.80
2022-09-30T14:12:24.414Z,2.13
2022-09-30T14:15:02.437Z,1.77
2022-09-30T14:17:44.250Z,1.90
2022-09-30T14:20:38.179Z,1.83
2022-09-30T14:23:13.623Z,2.13
2022-09-30T14:25:50.394Z,2.28
2022-09-30T14:28:42.269Z,1.95
2022-09-30T14:31:15.426Z,2.00
2022-09-30T14:33:47.619Z,2.35
2022-09-30T14:39:02.874Z,2.20
2022-09-30T14:41:31.496Z,1.80
2022-09-30T14:44:08.251Z,1.90
2022-09-30T14:46:41.174Z,2.10
2022-09-30T14:49:14.326Z,1.77
2022-09-30T14:51:49.175Z,2.00
2022-09-30T14:54:30.310Z,1.88
2022-09-30T14:56:59.292Z,2.00
2022-09-30T14:59:34.788Z,2.53
2022-09-30T15:02:12.865Z,2.17
2022-09-30T15:04:48.001Z,2.38
2022-09-30T15:07:15.270Z,1.55
2022-09-30T15:09:46.195Z,2.20
2022-09-30T15:12:20.165Z,1.70
2022-09-30T15:14:56.036Z,2.20
2022-09-30T15:17:40.785Z,1.67
2022-09-30T15:20:30.263Z,2.17
2022-09-30T15:23:01.169Z,1.85
2022-09-30T15:25:28.674Z,2.10
2022-09-30T15:27:55.604Z,2.08
2022-09-30T15:30:33.122Z,2.28
2022-09-30T15:33:03.430Z,1.90
2022-09-30T15:35:31.617Z,1.80
2022-09-30T15:38:15.792Z,1.90
2022-09-30T15:40:53.325Z,1.92
2022-09-30T15:43:40.038Z,1.70
2022-09-30T15:46:29.566Z,2.40
2022-09-30T15:48:59.543Z,2.03
2022-09-30T15:51:37.210Z,2.35
2022-09-30T15:54:27.650Z,2.25
2022-09-30T15:56:54.897Z,3.20
2022-09-30T15:59:22.807Z,3.45
2022-09-30T16:01:59.114Z,2.17
2022-09-30T16:04:26.500Z,2.30
2022-09-30T16:06:58.559Z,2.20
2022-09-30T16:09:34.995Z,2.97
2022-09-30T16:14:43.935Z,2.10
2022-09-30T16:17:23.226Z,2.47
2022-09-30T16:19:52.604Z,2.72
2022-09-30T16:22:40.789Z,2.33
2022-09-30T16:25:11.159Z,2.40
2022-09-30T16:27:38.804Z,2.28
2022-09-30T16:30:07.183Z,1.92
2022-09-30T16:32:41.823Z,2.60
2022-09-30T16:35:18.004Z,2.10
2022-09-30T16:37:44.928Z,2.08
2022-09-30T16:40:26.454Z,3.00
2022-09-30T16:42:58.827Z,1.98
2022-09-30T16:45:28.092Z,2.22
2022-09-30T16:47:57.094Z,2.50
2022-09-30T16:50:23.967Z,2.72
2022-09-30T16:52:50.955Z,2.58
2022-09-30T16:55:17.980Z,2.30
2022-09-30T16:57:44.862Z,2.20
2022-09-30T17:00:15.703Z,2.70
2022-09-30T17:02:42.586Z,3.83
2022-09-30T17:05:14.371Z,2.58
2022-09-30T17:07:43.484Z,2.15
2022-09-30T17:10:18.469Z,1.95
2022-09-30T17:12:45.483Z,2.03
2022-09-30T17:15:12.685Z,2.30
2022-09-30T17:17:39.620Z,2.63
2022-09-30T17:20:07.198Z,1.90
2022-09-30T17:22:34.065Z,2.45
2022-09-30T17:25:00.957Z,2.40
2022-09-30T17:27:27.872Z,1.88
2022-09-30T17:29:55.573Z,2.00
2022-09-30T17:32:22.679Z,2.22
2022-09-30T17:34:49.585Z,2.15
2022-09-30T17:37:16.483Z,2.03
2022-09-30T17:39:43.340Z,2.13
2022-09-30T17:42:32.871Z,1.88
2022-09-30T17:45:00.473Z,2.10
2022-09-30T17:47:27.733Z,2.28
2022-09-30T17:49:54.755Z,2.13
2022-09-30T17:52:21.686Z,1.95
2022-09-30T17:54:52.238Z,2.28
2022-09-30T17:57:20.569Z,2.03
2022-09-30T17:59:47.492Z,2.17
2022-09-30T18:02:17.550Z,1.98
2022-09-30T18:04:45.070Z,2.17
2022-09-30T18:07:13.784Z,2.20
2022-09-30T18:09:40.679Z,2.13
2022-09-30T18:12:07.813Z,2.20
2022-09-30T18:14:38.254Z,2.15
2022-09-30T18:17:06.409Z,2.00
2022-09-30T18:19:33.586Z,2.00
2022-09-30T18:22:00.447Z,1.80
2022-09-30T18:24:45.674Z,2.33
2022-09-30T18:27:12.831Z,1.80
2022-09-30T18:29:40.706Z,2.00
2022-09-30T18:32:09.086Z,1.85
2022-09-30T18:34:36.111Z,2.08
2022-09-30T18:37:06.713Z,2.33
2022-09-30T18:39:38.298Z,2.10
2022-09-30T18:42:05.499Z,1.75
2022-09-30T18:44:37.760Z,2.20
2022-09-30T18:47:06.084Z,2.20
2022-09-30T18:49:33.003Z,3.05
2022-09-30T18:52:00.140Z,1.80
2022-09-30T18:54:27.080Z,2.08
2022-09-30T18:56:54.171Z,1.77
2022-09-30T18:59:23.373Z,2.05
2022-09-30T19:01:51.258Z,1.92
2022-09-30T19:04:18.227Z,1.70
2022-09-30T19:06:47.709Z,2.17
2022-09-30T19:09:16.506Z,1.85
2022-09-30T19:11:44.960Z,2.03
2022-09-30T19:14:15.703Z,1.90
2022-09-30T19:16:43.555Z,2.05
2022-09-30T19:19:11.082Z,2.05
2022-09-30T19:21:39.424Z,3.03
2022-09-30T19:24:08.865Z,2.53
2022-09-30T19:26:38.337Z,2.75
2022-09-30T19:29:07.342Z,2.10
2022-09-30T19:31:36.661Z,2.47
2022-09-30T19:34:04.212Z,2.58
2022-09-30T19:36:42.060Z,2.13
2022-09-30T19:39:12.499Z,2.15
2022-09-30T19:41:39.947Z,2.15
2022-09-30T19:44:06.911Z,2.20
2022-09-30T19:46:33.899Z,2.20
2022-09-30T19:49:00.829Z,1.92
2022-09-30T19:51:31.349Z,2.00
2022-09-30T19:54:05.966Z,2.20
2022-09-30T19:56:34.892Z,2.20
2022-09-30T19:59:01.931Z,1.90
2022-09-30T20:01:30.756Z,2.10
2022-09-30T20:04:04.836Z,1.98
2022-09-30T20:06:33.620Z,2.45
2022-09-30T20:09:03.408Z,2.15
2022-09-30T20:11:33.726Z,2.38
2022-09-30T20:14:38.058Z,2.10
2022-09-30T20:17:05.105Z,2.30
2022-09-30T20:19:32.068Z,2.28
2022-09-30T20:21:59.167Z,2.00
2022-09-30T20:24:26.183Z,2.33
2022-09-30T20:26:53.079Z,2.25
2022-09-30T20:29:20.673Z,2.60
2022-09-30T20:31:48.357Z,2.20
2022-09-30T20:34:17.434Z,2.20
2022-09-30T20:36:45.075Z,2.35
2022-09-30T20:39:12.406Z,2.40
2022-09-30T20:41:40.428Z,2.35
2022-09-30T20:44:11.280Z,2.28
2022-09-30T20:46:39.454Z,2.42
2022-09-30T20:49:06.523Z,2.47
2022-09-30T20:51:33.874Z,2.50
2022-09-30T20:54:01.273Z,2.55
2022-09-30T20:56:39.308Z,2.05
2022-09-30T20:59:17.329Z,2.47
2022-09-30T21:01:44.394Z,2.55
2022-09-30T21:04:11.511Z,2.40
2022-09-30T21:06:38.418Z,2.55
2022-09-30T21:09:05.699Z,2.15
2022-09-30T21:11:33.656Z,2.30
2022-09-30T21:14:01.107Z,2.00
2022-09-30T21:16:29.704Z,3.25
2022-09-30T21:18:57.150Z,2.50
2022-09-30T21:21:25.865Z,3.08
2022-09-30T21:23:55.626Z,3.60
2022-09-30T21:26:22.753Z,1.95
2022-09-30T21:28:51.082Z,2.40
2022-09-30T21:31:22.154Z,2.72
2022-09-30T21:33:56.831Z,2.42
2022-09-30T21:36:24.824Z,2.95
2022-09-30T21:38:52.388Z,2.38
2022-09-30T21:41:19.901Z,3.20
2022-09-30T21:43:47.308Z,2.78
2022-09-30T21:46:15.995Z,2.17
2022-09-30T21:48:43.264Z,2.55
2022-09-30T21:51:10.837Z,1.70
2022-09-30T21:53:39.041Z,2.28
2022-09-30T21:56:07.065Z,2.08
2022-09-30T21:58:34.324Z,2.05
2022-09-30T22:01:04.259Z,2.35
2022-09-30T22:03:38.037Z,2.72
2022-09-30T22:06:09.347Z,1.95
2022-09-30T22:08:40.542Z,2.85
2022-09-30T22:11:14.713Z,2.22
2022-09-30T22:13:46.619Z,2.20
2022-09-30T22:16:15.403Z,2.33
2022-09-30T22:18:43.073Z,1.73
2022-09-30T22:21:13.822Z,2.10
2022-09-30T22:23:41.276Z,2.13
2022-09-30T22:26:12.369Z,2.53
2022-09-30T22:28:39.908Z,2.38
2022-09-30T22:31:21.725Z,2.50
2022-09-30T22:34:09.006Z,1.92
2022-09-30T22:36:55.043Z,2.20
2022-09-30T22:39:23.057Z,1.98
2022-09-30T22:41:55.988Z,2.08
2022-09-30T22:44:25.682Z,2.22
2022-09-30T22:46:53.505Z,2.00
2022-09-30T22:49:20.992Z,2.33
2022-09-30T22:51:52.371Z,2.38
2022-09-30T22:54:19.726Z,1.80
2022-09-30T22:56:46.653Z,2.30
2022-09-30T22:59:13.523Z,2.35
2022-09-30T23:01:40.556Z,1.92
2022-09-30T23:04:08.171Z,1.75
2022-09-30T23:06:36.146Z,1.75
2022-09-30T23:09:05.711Z,2.33
2022-09-30T23:11:33.276Z,2.15
2022-09-30T23:14:01.985Z,2.17
2022-09-30T23:16:29.451Z,2.00
2022-09-30T23:18:56.692Z,2.08
2022-09-30T23:21:23.717Z,2.10
2022-09-30T23:23:50.697Z,2.90
2022-09-30T23:26:20.850Z,2.20
2022-09-30T23:28:47.751Z,1.85
2022-09-30T23:31:16.303Z,2.10
2022-09-30T23:33:49.268Z,2.30
2022-09-30T23:36:19.139Z,1.85
2022-09-30T23:38:47.017Z,2.22
2022-09-30T23:41:14.189Z,2.50
2022-09-30T23:43:45.871Z,1.75
2022-09-30T23:46:12.882Z,2.08
2022-09-30T23:48:40.604Z,2.00
2022-09-30T23:51:07.778Z,1.80
2022-09-30T23:53:35.195Z,1.67
2022-09-30T23:56:05.747Z,2.28
2022-09-30T23:58:33.970Z,1.65
